createdAt,value
2018-04-26T09:21:26.838Z,975.01
2018-04-26T09:22:11.734Z,974.97
2018-04-26T09:25:19.009Z,974.93
2018-04-26T09:25:43.596Z,974.90
2018-04-26T09:26:43.600Z,974.98
2018-04-26T09:27:43.604Z,974.93
2018-04-26T09:29:04.668Z,974.88
2018-04-26T09:29:43.613Z,974.85
2018-04-26T09:30:43.617Z,974.85
2018-04-26T09:31:43.619Z,974.99
2018-04-26T09:32:43.626Z,974.98
2018-04-26T09:41:30.194Z,974.99
2018-04-26T09:42:22.263Z,974.91
2018-04-26T09:57:34.207Z,974.80
2018-04-26T09:58:06.559Z,975.03
2018-04-26T09:59:06.559Z,974.81
2018-04-26T10:00:06.563Z,975.18
2018-04-26T10:01:06.569Z,974.93
2018-04-26T10:02:06.573Z,975.25
2018-04-26T10:04:53.331Z,975.04
2018-04-26T10:05:38.148Z,975.02
2018-04-26T10:06:38.156Z,975.25
2018-04-26T10:07:38.154Z,975.08
2018-04-26T10:15:09.902Z,974.91
2018-04-26T10:15:44.774Z,975.05
2018-04-26T10:16:44.778Z,975.29
2018-04-26T10:21:11.433Z,974.98
2018-04-26T10:21:48.091Z,975.37
2018-04-26T10:29:16.807Z,974.90
2018-04-26T10:29:54.722Z,975.34
2018-04-26T10:30:54.699Z,975.37
2018-04-26T10:31:54.708Z,975.42
2018-04-26T10:32:56.319Z,975.49
2018-04-26T10:33:54.718Z,975.16
2018-04-26T10:34:54.719Z,975.07
2018-04-26T10:35:54.724Z,975.08
2018-04-26T10:36:54.728Z,975.12
2018-04-26T10:45:54.159Z,975.10
2018-04-26T10:46:33.112Z,975.05
2018-04-26T10:47:33.112Z,975.06
2018-04-26T11:05:33.717Z,975.48
2018-04-26T11:06:22.498Z,975.10
2018-04-26T11:07:22.508Z,974.89
2018-04-26T11:08:22.513Z,975.14
2018-04-26T11:11:12.826Z,975.31
2018-04-26T11:11:54.277Z,975.44
2018-04-26T11:12:54.284Z,975.02
2018-04-26T11:13:54.332Z,975.37
2018-04-26T11:14:54.302Z,975.04
2018-04-26T11:15:54.303Z,975.39
2018-04-26T11:16:55.076Z,975.44
2018-04-26T11:17:54.338Z,975.34
2018-04-26T11:18:57.791Z,975.18
2018-04-26T11:19:54.344Z,975.53
2018-04-26T11:20:54.348Z,975.52
2018-04-26T11:21:54.363Z,975.17
2018-04-26T11:22:54.375Z,975.19
2018-04-26T11:23:54.379Z,975.25
2018-04-26T11:28:12.784Z,975.13
2018-04-26T11:32:25.092Z,975.15
2018-04-26T11:33:00.979Z,975.20
2018-04-26T12:01:32.300Z,975.81
2018-04-26T12:02:30.693Z,975.96
2018-04-26T12:03:30.691Z,975.25
2018-04-26T12:04:30.696Z,975.49
2018-04-26T12:07:02.464Z,975.54
2018-04-26T12:08:02.360Z,975.60
2018-04-26T12:09:02.368Z,975.82
2018-04-26T12:10:02.432Z,975.64
2018-04-26T12:17:09.329Z,975.92
2018-04-26T12:18:08.980Z,976.26
2018-04-26T12:19:08.980Z,976.01
2018-04-26T12:20:08.990Z,976.01
2018-04-26T12:50:18.956Z,976.25
2018-04-26T12:51:10.337Z,976.41
2018-04-26T12:52:10.334Z,976.46
2018-04-26T12:53:10.866Z,976.49
2018-04-26T12:54:10.337Z,976.60
2018-04-26T12:55:10.344Z,976.52
2018-04-26T12:56:32.440Z,976.56
2018-04-26T12:57:10.351Z,976.51
2018-04-26T12:58:10.348Z,976.59
2018-04-26T12:59:10.354Z,976.58
2018-04-26T13:00:10.351Z,976.52
